Itaguaje, Brazil
Current Conditions -  °F | °C
As of 11:00 AM on Thursday 27 Nov 2014 (Local Time) from SBDN Reporting Station
Broken Clouds Broken Clouds  
Wind Chill: 86°   Ceiling: 2300
Heat Index: 90°   Visibility: 6mi
Dew Point: 70°   Wind: 5mph
Humidity: 58%   Direction: 330°NNW
Pressure: 29.88"   Gusts: NA
Location:  22.62°S, 51.97°W
Report Text: SBDN 271300Z 33004KT 9999 BKN023 30/21 Q1012
Loading
Personal Weather Stations






























Interactive Weather Map New forecast layout! Learn more

10-Day Weather Forecast

Advertisements
Track Severe Weather on mobile